Time;durP1;ratioP1;P1;durP2;ratioP2;P2;SDS_P1;SDS_P2;PMS_P1;PMS_P2;Temp;Humidity;BMP_temperature;BMP_pressure;BME280_temperature;BME280_humidity;BME280_pressure;Samples;Min_cycle;Max_cycle;Signal;HPM_P1;HPM_P2
2024/03/31 00:00:18;;;;;;;;;;;;;;;;;;5093156;28;19960;-58
2024/03/31 00:02:43;;;;;;;;;;;;;;;;;;5092972;28;19919;-59
2024/03/31 00:05:08;;;;;;;;;;;;;;;;;;5093016;28;20003;-59
2024/03/31 00:07:33;;;;;;;;;;;;;;;;;;5092924;28;19912;-66
2024/03/31 00:09:58;;;;;;;;;;;;;;;;;;5089672;28;20443;-66
2024/03/31 00:12:24;;;;;;;;;;;;;;;;;;5084214;28;19920;-66
2024/03/31 00:14:49;;;;;;;;;;;;;;;;;;5083793;28;19916;-68
2024/03/31 00:17:14;;;;;;;;;;;;;;;;;;5085005;28;19920;-66
2024/03/31 00:19:39;;;;;;;;;;;;;;;;;;5074454;28;19913;-65
2024/03/31 00:22:04;;;;;;;;;;;;;;;;;;5075584;28;19920;-66
2024/03/31 00:24:29;;;;;;;;;;;;;;;;;;5077663;28;19916;-66
2024/03/31 00:26:55;;;;;;;;;;;;;;;;;;5077143;28;19913;-66
2024/03/31 00:29:20;;;;;;;;;;;;;;;;;;5083680;28;19931;-66
2024/03/31 00:31:45;;;;;;;;;;;;;;;;;;5085160;28;19958;-66
2024/03/31 00:34:10;;;;;;;;;;;;;;;;;;5072487;28;19909;-66
2024/03/31 00:36:35;;;;;;;;;;;;;;;;;;5071516;28;20155;-66
2024/03/31 00:39:00;;;;;;;;;;;;;;;;;;5072333;28;19920;-66
2024/03/31 00:41:25;;;;;;;;;;;;;;;;;;5079575;28;19916;-66
2024/03/31 00:43:51;;;;;;;;;;;;;;;;;;5075389;28;19908;-66
2024/03/31 00:46:16;;;;;;;;;;;;;;;;;;5091576;28;19951;-66
2024/03/31 00:48:41;;;;;;;;;;;;;;;;;;5091343;28;19908;-66
2024/03/31 00:51:06;;;;;;;;;;;;;;;;;;5090600;28;19908;-66
2024/03/31 00:53:31;;;;;;;;;;;;;;;;;;5091486;28;19908;-66
2024/03/31 00:55:56;;;;;;;;;;;;;;;;;;5089403;28;19916;-66
2024/03/31 00:58:21;;;;;;;;;;;;;;;;;;5090865;28;19908;-66
2024/03/31 01:00:47;;;;;;;;;;;;;;;;;;5090810;28;19916;-66
2024/03/31 01:03:12;;;;;;;;;;;;;;;;;;5090996;28;19995;-66
2024/03/31 01:05:37;;;;;;;;;;;;;;;;;;5091064;28;19927;-66
2024/03/31 01:08:02;;;;;;;;;;;;;;;;;;5091200;28;19908;-66
2024/03/31 01:10:27;;;;;;;;;;;;;;;;;;5084766;28;19913;-66
2024/03/31 01:12:52;;;;;;;;;;;;;;;;;;5072907;28;19955;-66
2024/03/31 01:15:17;;;;;;;;;;;;;;;;;;5090829;28;19908;-66
2024/03/31 01:17:42;;;;;;;;;;;;;;;;;;5090738;28;19991;-66
2024/03/31 01:20:08;;;;;;;;;;;;;;;;;;5087479;28;19919;-66
2024/03/31 01:22:33;;;;;;;;;;;;;;;;;;5073919;28;19916;-66
2024/03/31 01:24:58;;;;;;;;;;;;;;;;;;5071842;28;19966;-66
2024/03/31 01:27:24;;;;;;;;;;;;;;;;;;5071952;28;19995;-66
2024/03/31 01:29:49;;;;;;;;;;;;;;;;;;5071503;28;19943;-66
2024/03/31 01:32:14;;;;;;;;;;;;;;;;;;5071620;28;19956;-66
2024/03/31 01:34:41;;;;;;;;;;;;;;;;;;5071579;28;19913;-66
2024/03/31 01:37:06;;;;;;;;;;;;;;;;;;5078143;28;19916;-66
2024/03/31 01:39:32;;;;;;;;;;;;;;;;;;5090544;28;19938;-66
2024/03/31 01:41:57;;;;;;;;;;;;;;;;;;5090295;28;20016;-66
2024/03/31 01:44:22;;;;;;;;;;;;;;;;;;5087129;28;19919;-66
2024/03/31 01:46:47;;;;;;;;;;;;;;;;;;5093268;28;19927;-66
2024/03/31 01:49:12;;;;;;;;;;;;;;;;;;5096914;28;19994;-66
2024/03/31 01:51:37;;;;;;;;;;;;;;;;;;5097216;28;19912;-66
2024/03/31 01:54:02;;;;;;;;;;;;;;;;;;5097342;28;19912;-66
2024/03/31 01:56:27;;;;;;;;;;;;;;;;;;5097171;28;19912;-66
2024/03/31 01:58:52;;;;;;;;;;;;;;;;;;5097067;28;20408;-66
2024/03/31 02:01:18;;;;;;;;;;;;;;;;;;5097285;28;20357;-66
2024/03/31 02:03:43;;;;;;;;;;;;;;;;;;5097003;28;20348;-65
2024/03/31 02:06:08;;;;;;;;;;;;;;;;;;5097022;28;20253;-66
2024/03/31 02:08:33;;;;;;;;;;;;;;;;;;5097278;28;19909;-66
2024/03/31 02:10:58;;;;;;;;;;;;;;;;;;5096171;28;19923;-66
2024/03/31 02:13:23;;;;;;;;;;;;;;;;;;5093730;28;20000;-66
2024/03/31 02:15:48;;;;;;;;;;;;;;;;;;5092509;28;19961;-66
2024/03/31 02:18:13;;;;;;;;;;;;;;;;;;5083151;28;19964;-66
2024/03/31 02:20:39;;;;;;;;;;;;;;;;;;5083742;28;19916;-66
2024/03/31 02:23:04;;;;;;;;;;;;;;;;;;5080699;28;19912;-66
2024/03/31 02:25:29;;;;;;;;;;;;;;;;;;5086403;28;19999;-66
2024/03/31 02:27:54;;;;;;;;;;;;;;;;;;5096688;28;20318;-60
2024/03/31 02:30:19;;;;;;;;;;;;;;;;;;5096881;28;20280;-59
2024/03/31 02:32:44;;;;;;;;;;;;;;;;;;5096145;28;19994;-60
2024/03/31 02:35:09;;;;;;;;;;;;;;;;;;5081144;28;20439;-59
2024/03/31 02:37:34;;;;;;;;;;;;;;;;;;5077667;28;19913;-60
2024/03/31 02:39:59;;;;;;;;;;;;;;;;;;5077506;28;19920;-60
2024/03/31 02:42:25;;;;;;;;;;;;;;;;;;5077432;28;19912;-60
2024/03/31 02:44:50;;;;;;;;;;;;;;;;;;5089201;28;19920;-61
2024/03/31 02:47:15;;;;;;;;;;;;;;;;;;5096654;28;19958;-60
2024/03/31 02:49:40;;;;;;;;;;;;;;;;;;5096271;28;19919;-60
2024/03/31 02:52:06;;;;;;;;;;;;;;;;;;5096599;28;19958;-60
2024/03/31 02:54:31;;;;;;;;;;;;;;;;;;5096845;28;20276;-60
2024/03/31 02:56:56;;;;;;;;;;;;;;;;;;5096541;28;20348;-60
2024/03/31 02:59:21;;;;;;;;;;;;;;;;;;5093203;28;20340;-60
2024/03/31 03:01:46;;;;;;;;;;;;;;;;;;5093669;28;20417;-59
2024/03/31 03:04:11;;;;;;;;;;;;;;;;;;5093362;28;20423;-60
2024/03/31 03:06:36;;;;;;;;;;;;;;;;;;5093421;28;20334;-60
2024/03/31 03:09:03;;;;;;;;;;;;;;;;;;5093395;28;19908;-59
2024/03/31 03:11:28;;;;;;;;;;;;;;;;;;5077838;28;20432;-60
2024/03/31 03:13:53;;;;;;;;;;;;;;;;;;5083811;28;20021;-61
2024/03/31 03:16:19;;;;;;;;;;;;;;;;;;5092985;28;19909;-60
2024/03/31 03:18:44;;;;;;;;;;;;;;;;;;5079145;28;20245;-60
2024/03/31 03:21:09;;;;;;;;;;;;;;;;;;5080560;28;19909;-60
2024/03/31 03:23:34;;;;;;;;;;;;;;;;;;5074169;28;19913;-60
2024/03/31 03:26:00;;;;;;;;;;;;;;;;;;5073965;28;19960;-60
2024/03/31 03:28:26;;;;;;;;;;;;;;;;;;5055757;28;19908;-61
2024/03/31 03:30:51;;;;;;;;;;;;;;;;;;5074023;28;19969;-60
2024/03/31 03:33:16;;;;;;;;;;;;;;;;;;5073757;28;19913;-60
2024/03/31 03:35:41;;;;;;;;;;;;;;;;;;5079704;28;19935;-59
2024/03/31 03:38:06;;;;;;;;;;;;;;;;;;5077629;28;19994;-60
2024/03/31 03:40:31;;;;;;;;;;;;;;;;;;5092351;28;19924;-59
2024/03/31 03:42:56;;;;;;;;;;;;;;;;;;5090058;28;19975;-60
2024/03/31 03:45:21;;;;;;;;;;;;;;;;;;5092298;28;19920;-60
2024/03/31 03:47:47;;;;;;;;;;;;;;;;;;5092454;28;19916;-59
2024/03/31 03:50:12;;;;;;;;;;;;;;;;;;5092203;28;19920;-61
2024/03/31 03:52:37;;;;;;;;;;;;;;;;;;5091971;28;19926;-60
2024/03/31 03:55:02;;;;;;;;;;;;;;;;;;5092328;28;19947;-60
2024/03/31 03:57:27;;;;;;;;;;;;;;;;;;5092500;28;20306;-61
2024/03/31 03:59:53;;;;;;;;;;;;;;;;;;5091988;28;19956;-60
2024/03/31 04:02:18;;;;;;;;;;;;;;;;;;5089736;28;20253;-60
2024/03/31 04:04:43;;;;;;;;;;;;;;;;;;5092020;28;19916;-59
2024/03/31 04:07:08;;;;;;;;;;;;;;;;;;5091900;28;19995;-59
2024/03/31 04:09:33;;;;;;;;;;;;;;;;;;5091111;28;19919;-60
2024/03/31 04:11:58;;;;;;;;;;;;;;;;;;5075960;28;19915;-60
2024/03/31 04:14:23;;;;;;;;;;;;;;;;;;5087063;28;19942;-60
2024/03/31 04:16:48;;;;;;;;;;;;;;;;;;5074067;28;19953;-60
2024/03/31 04:19:13;;;;;;;;;;;;;;;;;;5072761;28;19915;-59
2024/03/31 04:21:39;;;;;;;;;;;;;;;;;;5083260;28;19914;-59
2024/03/31 04:24:04;;;;;;;;;;;;;;;;;;5084188;28;19923;-59
2024/03/31 04:26:29;;;;;;;;;;;;;;;;;;5078964;28;19908;-60
2024/03/31 04:28:54;;;;;;;;;;;;;;;;;;5088739;28;19999;-60
2024/03/31 04:31:19;;;;;;;;;;;;;;;;;;5088499;28;19908;-61
2024/03/31 04:33:44;;;;;;;;;;;;;;;;;;5091796;28;19939;-60
2024/03/31 04:36:09;;;;;;;;;;;;;;;;;;5091276;28;20025;-61
2024/03/31 04:38:34;;;;;;;;;;;;;;;;;;5090114;28;19934;-60
2024/03/31 04:41:00;;;;;;;;;;;;;;;;;;5075051;28;19986;-60
2024/03/31 04:43:25;;;;;;;;;;;;;;;;;;5079275;28;19967;-61
2024/03/31 04:45:50;;;;;;;;;;;;;;;;;;5091608;28;19961;-60
2024/03/31 04:48:15;;;;;;;;;;;;;;;;;;5087487;28;19974;-66
2024/03/31 04:50:40;;;;;;;;;;;;;;;;;;5072965;28;19919;-66
2024/03/31 04:53:05;;;;;;;;;;;;;;;;;;5086706;28;19950;-66
2024/03/31 04:55:30;;;;;;;;;;;;;;;;;;5072151;28;19919;-66
2024/03/31 04:57:55;;;;;;;;;;;;;;;;;;5071921;28;19915;-66
2024/03/31 05:00:20;;;;;;;;;;;;;;;;;;5072647;28;19954;-66
2024/03/31 05:02:46;;;;;;;;;;;;;;;;;;5090950;28;20013;-67
2024/03/31 05:05:11;;;;;;;;;;;;;;;;;;5090888;28;19919;-67
2024/03/31 05:07:36;;;;;;;;;;;;;;;;;;5090699;28;19915;-66
2024/03/31 05:10:01;;;;;;;;;;;;;;;;;;5090329;28;19915;-66
2024/03/31 05:12:26;;;;;;;;;;;;;;;;;;5072854;28;19914;-66
2024/03/31 05:14:51;;;;;;;;;;;;;;;;;;5087041;28;19962;-66
2024/03/31 05:17:16;;;;;;;;;;;;;;;;;;5090808;28;19912;-66
2024/03/31 05:19:41;;;;;;;;;;;;;;;;;;5090637;28;20361;-66
2024/03/31 05:22:07;;;;;;;;;;;;;;;;;;5071653;28;19932;-66
2024/03/31 05:24:32;;;;;;;;;;;;;;;;;;5071945;28;19919;-66
2024/03/31 05:26:57;;;;;;;;;;;;;;;;;;5071977;28;19916;-66
2024/03/31 05:29:22;;;;;;;;;;;;;;;;;;5071638;28;20576;-67
2024/03/31 05:31:47;;;;;;;;;;;;;;;;;;5071914;28;20383;-66
2024/03/31 05:34:12;;;;;;;;;;;;;;;;;;5071808;28;20052;-67
2024/03/31 05:36:37;;;;;;;;;;;;;;;;;;5082274;28;19916;-67
2024/03/31 05:39:02;;;;;;;;;;;;;;;;;;5071500;28;20276;-67
2024/03/31 05:41:28;;;;;;;;;;;;;;;;;;5071729;28;19917;-66
2024/03/31 05:43:53;;;;;;;;;;;;;;;;;;5082728;28;20468;-66
2024/03/31 05:46:19;;;;;;;;;;;;;;;;;;5090548;28;19912;-66
2024/03/31 05:48:44;;;;;;;;;;;;;;;;;;5090115;28;19908;-66
2024/03/31 05:51:09;;;;;;;;;;;;;;;;;;5090398;28;19915;-66
2024/03/31 05:53:34;;;;;;;;;;;;;;;;;;5090147;28;19996;-66
2024/03/31 05:56:01;;;;;;;;;;;;;;;;;;5090132;28;19915;-67
2024/03/31 05:58:26;;;;;;;;;;;;;;;;;;5090788;28;19934;-67
2024/03/31 06:00:52;;;;;;;;;;;;;;;;;;5089401;28;20306;-66
2024/03/31 06:03:17;;;;;;;;;;;;;;;;;;5090014;28;19908;-66
2024/03/31 06:05:42;;;;;;;;;;;;;;;;;;5090161;28;19916;-66
2024/03/31 06:08:07;;;;;;;;;;;;;;;;;;5090053;28;19912;-66
2024/03/31 06:10:32;;;;;;;;;;;;;;;;;;5085101;28;19970;-66
2024/03/31 06:12:58;;;;;;;;;;;;;;;;;;5075113;28;20004;-67
2024/03/31 06:15:23;;;;;;;;;;;;;;;;;;5090292;28;19916;-66
2024/03/31 06:17:48;;;;;;;;;;;;;;;;;;5089903;28;19909;-66
2024/03/31 06:20:13;;;;;;;;;;;;;;;;;;5085798;28;19913;-67
2024/03/31 06:22:38;;;;;;;;;;;;;;;;;;5076722;28;19909;-67
2024/03/31 06:25:03;;;;;;;;;;;;;;;;;;5071159;28;19912;-66
2024/03/31 06:27:28;;;;;;;;;;;;;;;;;;5088406;28;19908;-66
2024/03/31 06:29:54;;;;;;;;;;;;;;;;;;5079654;28;19908;-66
2024/03/31 06:32:19;;;;;;;;;;;;;;;;;;5073239;28;19909;-67
2024/03/31 06:34:44;;;;;;;;;;;;;;;;;;5092228;28;20006;-66
2024/03/31 06:37:09;;;;;;;;;;;;;;;;;;5093893;28;20338;-67
2024/03/31 06:39:34;;;;;;;;;;;;;;;;;;5091953;28;20330;-67
2024/03/31 06:41:59;;;;;;;;;;;;;;;;;;5077103;28;20284;-67
2024/03/31 06:44:24;;;;;;;;;;;;;;;;;;5091690;28;20275;-66
2024/03/31 06:46:49;;;;;;;;;;;;;;;;;;5093909;28;20568;-67
2024/03/31 06:49:14;;;;;;;;;;;;;;;;;;5093613;28;19935;-66
2024/03/31 06:51:40;;;;;;;;;;;;;;;;;;5088771;28;19959;-67
2024/03/31 06:54:05;;;;;;;;;;;;;;;;;;5083154;28;19961;-67
2024/03/31 06:56:30;;;;;;;;;;;;;;;;;;5093270;28;20283;-67
2024/03/31 06:58:55;;;;;;;;;;;;;;;;;;5093377;28;19915;-66
2024/03/31 07:01:20;;;;;;;;;;;;;;;;;;5093145;28;19914;-67
2024/03/31 07:03:45;;;;;;;;;;;;;;;;;;5093411;28;19960;-66
2024/03/31 07:06:10;;;;;;;;;;;;;;;;;;5093507;28;19916;-67
2024/03/31 07:08:35;;;;;;;;;;;;;;;;;;5084564;28;19912;-61
2024/03/31 07:11:01;;;;;;;;;;;;;;;;;;5075779;28;19909;-60
2024/03/31 07:13:26;;;;;;;;;;;;;;;;;;5082213;28;19912;-61
2024/03/31 07:15:51;;;;;;;;;;;;;;;;;;5092874;28;20311;-61
2024/03/31 07:18:16;;;;;;;;;;;;;;;;;;5092919;28;19946;-60
2024/03/31 07:20:41;;;;;;;;;;;;;;;;;;5092857;28;20007;-61
2024/03/31 07:23:06;;;;;;;;;;;;;;;;;;5092874;28;19912;-60
2024/03/31 07:25:31;;;;;;;;;;;;;;;;;;5082608;28;19920;-61
2024/03/31 07:27:56;;;;;;;;;;;;;;;;;;5092955;28;20618;-60
2024/03/31 07:30:22;;;;;;;;;;;;;;;;;;5092927;28;20321;-61
2024/03/31 07:32:47;;;;;;;;;;;;;;;;;;5093120;28;20249;-61
2024/03/31 07:35:12;;;;;;;;;;;;;;;;;;5092577;28;19976;-61
2024/03/31 07:37:37;;;;;;;;;;;;;;;;;;5092679;28;20486;-60
2024/03/31 07:40:02;;;;;;;;;;;;;;;;;;5092268;28;19931;-60
2024/03/31 07:42:27;;;;;;;;;;;;;;;;;;5087161;28;19923;-60
2024/03/31 07:44:52;;;;;;;;;;;;;;;;;;5092177;28;19918;-60
2024/03/31 07:47:17;;;;;;;;;;;;;;;;;;5092249;28;20001;-60
2024/03/31 07:49:43;;;;;;;;;;;;;;;;;;5092583;28;19916;-60
2024/03/31 07:52:08;;;;;;;;;;;;;;;;;;5092548;28;19908;-61
2024/03/31 07:54:33;;;;;;;;;;;;;;;;;;5088160;28;20364;-60
2024/03/31 07:56:58;;;;;;;;;;;;;;;;;;5092509;28;20365;-61
2024/03/31 07:59:23;;;;;;;;;;;;;;;;;;5092129;28;20276;-61
2024/03/31 08:01:48;;;;;;;;;;;;;;;;;;5091908;28;20321;-60
2024/03/31 08:04:13;;;;;;;;;;;;;;;;;;5092131;28;20273;-60
2024/03/31 08:06:38;;;;;;;;;;;;;;;;;;5075838;28;19947;-60
2024/03/31 08:09:04;;;;;;;;;;;;;;;;;;5076683;28;19916;-60
2024/03/31 08:11:29;;;;;;;;;;;;;;;;;;5074292;28;20419;-60
2024/03/31 08:13:54;;;;;;;;;;;;;;;;;;5085485;28;19908;-60
2024/03/31 08:16:19;;;;;;;;;;;;;;;;;;5073138;28;19916;-61
2024/03/31 08:18:44;;;;;;;;;;;;;;;;;;5075143;28;19919;-60
2024/03/31 08:21:12;;;;;;;;;;;;;;;;;;5074920;28;19951;-59
2024/03/31 08:23:38;;;;;;;;;;;;;;;;;;5086931;28;20397;-60
2024/03/31 08:26:03;;;;;;;;;;;;;;;;;;5083398;28;19920;-60
2024/03/31 08:28:28;;;;;;;;;;;;;;;;;;5080635;28;19912;-60
2024/03/31 08:30:53;;;;;;;;;;;;;;;;;;5083920;28;19954;-61
2024/03/31 08:33:18;;;;;;;;;;;;;;;;;;5077884;28;20635;-61
2024/03/31 08:35:43;;;;;;;;;;;;;;;;;;5083588;28;20396;-61
2024/03/31 08:38:08;;;;;;;;;;;;;;;;;;5084754;28;20383;-60
2024/03/31 08:40:33;;;;;;;;;;;;;;;;;;5080366;28;20377;-59
2024/03/31 08:42:58;;;;;;;;;;;;;;;;;;5084905;28;20246;-61
2024/03/31 08:45:24;;;;;;;;;;;;;;;;;;5087248;28;19920;-60
2024/03/31 08:47:49;;;;;;;;;;;;;;;;;;5077511;28;20294;-60
2024/03/31 08:50:14;;;;;;;;;;;;;;;;;;5074668;28;19944;-61
2024/03/31 08:52:39;;;;;;;;;;;;;;;;;;5072290;28;19913;-59
2024/03/31 08:55:04;;;;;;;;;;;;;;;;;;5080061;28;19917;-59
2024/03/31 08:57:29;;;;;;;;;;;;;;;;;;5082898;28;19914;-59
2024/03/31 08:59:55;;;;;;;;;;;;;;;;;;5082569;28;19915;-61
2024/03/31 09:02:20;;;;;;;;;;;;;;;;;;5072229;28;19913;-60
2024/03/31 09:04:45;;;;;;;;;;;;;;;;;;5072213;28;19961;-59
2024/03/31 09:07:10;;;;;;;;;;;;;;;;;;5087896;28;19984;-59
2024/03/31 09:09:35;;;;;;;;;;;;;;;;;;5091002;28;19908;-60
2024/03/31 09:12:01;;;;;;;;;;;;;;;;;;5072073;28;19908;-59
2024/03/31 09:14:26;;;;;;;;;;;;;;;;;;5084779;28;20077;-60
2024/03/31 09:16:51;;;;;;;;;;;;;;;;;;5090466;28;19916;-60
2024/03/31 09:19:16;;;;;;;;;;;;;;;;;;5090645;28;19919;-60
2024/03/31 09:21:41;;;;;;;;;;;;;;;;;;5090923;28;19991;-60
2024/03/31 09:24:06;;;;;;;;;;;;;;;;;;5091008;28;19908;-60
2024/03/31 09:26:32;;;;;;;;;;;;;;;;;;5090682;28;19912;-60
2024/03/31 09:28:57;;;;;;;;;;;;;;;;;;5090656;28;19916;-60
2024/03/31 09:31:22;;;;;;;;;;;;;;;;;;5090837;28;19908;-61
2024/03/31 09:33:47;;;;;;;;;;;;;;;;;;5090550;28;19916;-60
2024/03/31 09:36:12;;;;;;;;;;;;;;;;;;5090350;28;19908;-61
2024/03/31 09:38:37;;;;;;;;;;;;;;;;;;5090769;28;19916;-59
2024/03/31 09:41:03;;;;;;;;;;;;;;;;;;5090486;28;19978;-60
2024/03/31 09:43:28;;;;;;;;;;;;;;;;;;5087055;28;19908;-60
2024/03/31 09:45:53;;;;;;;;;;;;;;;;;;5088640;28;19912;-59
2024/03/31 09:48:18;;;;;;;;;;;;;;;;;;5088199;28;20372;-59
2024/03/31 09:50:43;;;;;;;;;;;;;;;;;;5090402;28;19991;-59
2024/03/31 09:53:09;;;;;;;;;;;;;;;;;;5090264;28;19909;-60
2024/03/31 09:55:34;;;;;;;;;;;;;;;;;;5090802;28;19986;-59
2024/03/31 09:58:00;;;;;;;;;;;;;;;;;;5090393;28;19916;-59
2024/03/31 10:00:25;;;;;;;;;;;;;;;;;;5090437;28;20396;-60
2024/03/31 10:02:51;;;;;;;;;;;;;;;;;;5090535;28;19912;-59
2024/03/31 10:05:16;;;;;;;;;;;;;;;;;;5079205;28;19927;-60
2024/03/31 10:07:41;;;;;;;;;;;;;;;;;;5080695;28;19916;-60
2024/03/31 10:10:07;;;;;;;;;;;;;;;;;;5079056;28;19912;-60
2024/03/31 10:12:33;;;;;;;;;;;;;;;;;;5092639;28;20019;-59
2024/03/31 10:14:58;;;;;;;;;;;;;;;;;;5082154;28;19995;-60
2024/03/31 10:17:23;;;;;;;;;;;;;;;;;;5087518;28;20296;-59
2024/03/31 10:19:50;;;;;;;;;;;;;;;;;;5089259;28;19968;-59
2024/03/31 10:22:15;;;;;;;;;;;;;;;;;;5089727;28;19913;-59
2024/03/31 10:24:40;;;;;;;;;;;;;;;;;;5082103;28;19957;-59
2024/03/31 10:27:05;;;;;;;;;;;;;;;;;;5075986;28;19912;-59
2024/03/31 10:29:30;;;;;;;;;;;;;;;;;;5082236;28;19938;-59
2024/03/31 10:31:56;;;;;;;;;;;;;;;;;;5083943;28;20343;-59
2024/03/31 10:34:21;;;;;;;;;;;;;;;;;;5083134;28;20368;-59
2024/03/31 10:36:46;;;;;;;;;;;;;;;;;;5086149;28;20003;-59
2024/03/31 10:39:11;;;;;;;;;;;;;;;;;;5086212;28;20322;-59
2024/03/31 10:41:36;;;;;;;;;;;;;;;;;;5082644;28;19924;-59
2024/03/31 10:44:01;;;;;;;;;;;;;;;;;;5085773;28;19965;-59
2024/03/31 10:46:26;;;;;;;;;;;;;;;;;;5085374;28;19962;-59
2024/03/31 10:48:51;;;;;;;;;;;;;;;;;;5085645;28;19913;-59
2024/03/31 10:51:17;;;;;;;;;;;;;;;;;;5088043;28;20033;-62
2024/03/31 10:53:42;;;;;;;;;;;;;;;;;;5082217;28;19915;-59
2024/03/31 10:56:07;;;;;;;;;;;;;;;;;;5084578;28;20322;-58
2024/03/31 10:58:32;;;;;;;;;;;;;;;;;;5079768;28;19916;-59
2024/03/31 11:00:57;;;;;;;;;;;;;;;;;;5079014;28;20385;-58
2024/03/31 11:03:22;;;;;;;;;;;;;;;;;;5075055;28;19915;-60
2024/03/31 11:05:47;;;;;;;;;;;;;;;;;;5075032;28;19973;-58
2024/03/31 11:08:13;;;;;;;;;;;;;;;;;;5074426;28;20368;-59
2024/03/31 11:10:38;;;;;;;;;;;;;;;;;;5083172;28;20399;-60
2024/03/31 11:13:03;;;;;;;;;;;;;;;;;;5077061;28;20299;-59
2024/03/31 11:15:28;;;;;;;;;;;;;;;;;;5092953;28;19914;-60
2024/03/31 11:17:53;;;;;;;;;;;;;;;;;;5092977;28;19912;-59
2024/03/31 11:20:18;;;;;;;;;;;;;;;;;;5092542;28;19908;-59
2024/03/31 11:22:43;;;;;;;;;;;;;;;;;;5093093;28;19955;-59
2024/03/31 11:25:08;;;;;;;;;;;;;;;;;;5092969;28;19916;-59
2024/03/31 11:27:34;;;;;;;;;;;;;;;;;;5090421;28;20364;-59
2024/03/31 11:29:59;;;;;;;;;;;;;;;;;;5076192;28;19912;-58
2024/03/31 11:32:24;;;;;;;;;;;;;;;;;;5082624;28;19915;-59
2024/03/31 11:34:49;;;;;;;;;;;;;;;;;;5093098;28;19960;-58
2024/03/31 11:37:14;;;;;;;;;;;;;;;;;;5092518;28;19991;-59
2024/03/31 11:39:39;;;;;;;;;;;;;;;;;;5092565;28;19966;-59
2024/03/31 11:42:04;;;;;;;;;;;;;;;;;;5092596;28;19919;-58
2024/03/31 11:44:31;;;;;;;;;;;;;;;;;;5077811;28;20010;-59
2024/03/31 11:47:02;;;;;;;;;;;;;;;;;;5086006;28;20012;-60
2024/03/31 11:49:27;;;;;;;;;;;;;;;;;;5079380;28;19923;-67
2024/03/31 11:51:52;;;;;;;;;;;;;;;;;;5078263;28;19916;-67
2024/03/31 11:54:18;;;;;;;;;;;;;;;;;;5077427;28;19928;-68
2024/03/31 11:56:43;;;;;;;;;;;;;;;;;;5077249;28;19912;-67
2024/03/31 11:59:08;;;;;;;;;;;;;;;;;;5079754;28;19916;-67
2024/03/31 12:01:33;;;;;;;;;;;;;;;;;;5080876;28;19960;-67
2024/03/31 12:03:58;;;;;;;;;;;;;;;;;;5080217;28;19912;-68
2024/03/31 12:06:23;;;;;;;;;;;;;;;;;;5082557;28;19920;-67
2024/03/31 12:08:48;;;;;;;;;;;;;;;;;;5079406;28;19916;-67
2024/03/31 12:11:13;;;;;;;;;;;;;;;;;;5083380;28;19916;-68
2024/03/31 12:13:39;;;;;;;;;;;;;;;;;;5080499;28;20013;-68
2024/03/31 12:16:04;;;;;;;;;;;;;;;;;;5080245;28;19916;-67
2024/03/31 12:18:29;;;;;;;;;;;;;;;;;;5077237;28;19969;-67
2024/03/31 12:20:54;;;;;;;;;;;;;;;;;;5080688;28;19916;-66
2024/03/31 12:23:19;;;;;;;;;;;;;;;;;;5075224;28;19912;-66
2024/03/31 12:25:44;;;;;;;;;;;;;;;;;;5075543;28;19916;-64
2024/03/31 12:28:09;;;;;;;;;;;;;;;;;;5081815;28;19912;-65
2024/03/31 12:30:35;;;;;;;;;;;;;;;;;;5079626;28;19912;-66
2024/03/31 12:33:00;;;;;;;;;;;;;;;;;;5078248;28;19915;-67
2024/03/31 12:35:25;;;;;;;;;;;;;;;;;;5074123;28;19912;-66
2024/03/31 12:37:50;;;;;;;;;;;;;;;;;;5076833;28;19916;-67
2024/03/31 12:40:15;;;;;;;;;;;;;;;;;;5077237;28;19924;-67
2024/03/31 12:42:41;;;;;;;;;;;;;;;;;;5078962;28;20266;-67
2024/03/31 12:45:06;;;;;;;;;;;;;;;;;;5086755;28;19920;-67
2024/03/31 12:47:31;;;;;;;;;;;;;;;;;;5076646;28;19916;-66
2024/03/31 12:49:56;;;;;;;;;;;;;;;;;;5082058;28;20388;-67
2024/03/31 12:52:22;;;;;;;;;;;;;;;;;;5081135;28;20384;-67
2024/03/31 12:54:47;;;;;;;;;;;;;;;;;;5077960;28;20360;-67
2024/03/31 12:57:12;;;;;;;;;;;;;;;;;;5078849;28;20676;-60
2024/03/31 12:59:37;;;;;;;;;;;;;;;;;;5084910;28;20370;-60
2024/03/31 13:02:02;;;;;;;;;;;;;;;;;;5083417;28;20003;-61
2024/03/31 13:04:27;;;;;;;;;;;;;;;;;;5084172;28;19916;-59
2024/03/31 13:06:52;;;;;;;;;;;;;;;;;;5079492;28;19920;-61
2024/03/31 13:09:17;;;;;;;;;;;;;;;;;;5077943;28;20380;-61
2024/03/31 13:11:43;;;;;;;;;;;;;;;;;;5073224;28;19919;-59
2024/03/31 13:14:08;;;;;;;;;;;;;;;;;;5081411;28;20027;-60
2024/03/31 13:16:33;;;;;;;;;;;;;;;;;;5078453;28;19988;-60
2024/03/31 13:18:58;;;;;;;;;;;;;;;;;;5077958;28;19978;-62
2024/03/31 13:21:23;;;;;;;;;;;;;;;;;;5073364;28;19927;-61
2024/03/31 13:23:48;;;;;;;;;;;;;;;;;;5076898;28;19922;-61
2024/03/31 13:26:13;;;;;;;;;;;;;;;;;;5077874;28;20540;-61
2024/03/31 13:28:39;;;;;;;;;;;;;;;;;;5079947;28;19916;-60
2024/03/31 13:31:04;;;;;;;;;;;;;;;;;;5075421;28;19920;-61
2024/03/31 13:33:29;;;;;;;;;;;;;;;;;;5079810;28;19999;-59
2024/03/31 13:35:54;;;;;;;;;;;;;;;;;;5081363;28;19908;-61
2024/03/31 13:38:19;;;;;;;;;;;;;;;;;;5083802;28;19916;-60
2024/03/31 13:40:45;;;;;;;;;;;;;;;;;;5090074;28;19928;-60
2024/03/31 13:43:10;;;;;;;;;;;;;;;;;;5081044;28;19912;-60
2024/03/31 13:45:35;;;;;;;;;;;;;;;;;;5082638;28;19920;-61
2024/03/31 13:48:00;;;;;;;;;;;;;;;;;;5080229;28;19930;-60
2024/03/31 13:50:25;;;;;;;;;;;;;;;;;;5076559;28;19916;-61
2024/03/31 13:52:51;;;;;;;;;;;;;;;;;;5071531;28;19987;-61
2024/03/31 13:55:16;;;;;;;;;;;;;;;;;;5082527;28;19924;-59
2024/03/31 13:57:41;;;;;;;;;;;;;;;;;;5084436;28;20365;-60
2024/03/31 14:00:06;;;;;;;;;;;;;;;;;;5084854;28;20276;-60
2024/03/31 14:02:32;;;;;;;;;;;;;;;;;;5090527;28;19915;-60
2024/03/31 14:04:57;;;;;;;;;;;;;;;;;;5090198;28;20387;-60
2024/03/31 14:07:22;;;;;;;;;;;;;;;;;;5077048;28;19912;-61
2024/03/31 14:09:47;;;;;;;;;;;;;;;;;;5071636;28;19912;-68
2024/03/31 14:12:12;;;;;;;;;;;;;;;;;;5071496;28;20604;-68
2024/03/31 14:14:38;;;;;;;;;;;;;;;;;;5086386;28;20663;-68
2024/03/31 14:17:03;;;;;;;;;;;;;;;;;;5072209;28;20436;-68
2024/03/31 14:19:28;;;;;;;;;;;;;;;;;;5071478;28;19983;-67
2024/03/31 14:21:53;;;;;;;;;;;;;;;;;;5078476;28;19908;-68
2024/03/31 14:24:18;;;;;;;;;;;;;;;;;;5090237;28;19914;-68
2024/03/31 14:26:43;;;;;;;;;;;;;;;;;;5086647;28;19990;-68
2024/03/31 14:29:08;;;;;;;;;;;;;;;;;;5090091;28;19908;-69
2024/03/31 14:31:34;;;;;;;;;;;;;;;;;;5087746;28;19908;-69
2024/03/31 14:33:59;;;;;;;;;;;;;;;;;;5089484;28;20265;-68
2024/03/31 14:36:24;;;;;;;;;;;;;;;;;;5089808;28;20134;-68
2024/03/31 14:38:49;;;;;;;;;;;;;;;;;;5090232;28;19919;-69
2024/03/31 14:41:14;;;;;;;;;;;;;;;;;;5070856;28;19939;-69
2024/03/31 14:43:39;;;;;;;;;;;;;;;;;;5080507;28;20624;-69
2024/03/31 14:46:04;;;;;;;;;;;;;;;;;;5090034;28;20268;-68
2024/03/31 14:48:29;;;;;;;;;;;;;;;;;;5088604;28;20679;-69
2024/03/31 14:50:54;;;;;;;;;;;;;;;;;;5088690;28;20261;-69
2024/03/31 14:53:20;;;;;;;;;;;;;;;;;;5080359;28;19912;-68
2024/03/31 14:55:45;;;;;;;;;;;;;;;;;;5084206;28;19955;-69
2024/03/31 14:58:10;;;;;;;;;;;;;;;;;;5082532;28;19957;-69
2024/03/31 15:00:35;;;;;;;;;;;;;;;;;;5085221;28;19962;-68
2024/03/31 15:03:00;;;;;;;;;;;;;;;;;;5087174;28;19913;-68
2024/03/31 15:05:26;;;;;;;;;;;;;;;;;;5087521;28;19916;-68
2024/03/31 15:07:51;;;;;;;;;;;;;;;;;;5083782;28;19995;-66
2024/03/31 15:10:16;;;;;;;;;;;;;;;;;;5080558;28;19936;-68
2024/03/31 15:12:41;;;;;;;;;;;;;;;;;;5077002;28;19966;-68
2024/03/31 15:15:06;;;;;;;;;;;;;;;;;;5083017;28;19919;-68
2024/03/31 15:17:32;;;;;;;;;;;;;;;;;;5074328;28;20323;-69
2024/03/31 15:19:57;;;;;;;;;;;;;;;;;;5074436;28;19920;-60
2024/03/31 15:22:22;;;;;;;;;;;;;;;;;;5074167;28;19916;-60
2024/03/31 15:24:47;;;;;;;;;;;;;;;;;;5074166;28;19962;-59
2024/03/31 15:27:12;;;;;;;;;;;;;;;;;;5074117;28;20420;-61
2024/03/31 15:29:37;;;;;;;;;;;;;;;;;;5077224;28;20361;-59
2024/03/31 15:32:03;;;;;;;;;;;;;;;;;;5093137;28;20296;-61
2024/03/31 15:34:28;;;;;;;;;;;;;;;;;;5078317;28;19917;-61
2024/03/31 15:36:53;;;;;;;;;;;;;;;;;;5073754;28;19909;-61
2024/03/31 15:39:18;;;;;;;;;;;;;;;;;;5083017;28;19912;-60
2024/03/31 15:41:44;;;;;;;;;;;;;;;;;;5077461;28;19920;-59
2024/03/31 15:44:09;;;;;;;;;;;;;;;;;;5087589;28;19959;-59
2024/03/31 15:46:34;;;;;;;;;;;;;;;;;;5090041;28;20011;-59
2024/03/31 15:48:59;;;;;;;;;;;;;;;;;;5092622;28;19908;-60
2024/03/31 15:51:24;;;;;;;;;;;;;;;;;;5092263;28;19908;-60
2024/03/31 15:53:50;;;;;;;;;;;;;;;;;;5077257;28;19920;-60
2024/03/31 15:56:15;;;;;;;;;;;;;;;;;;5081752;28;19918;-59
2024/03/31 15:58:40;;;;;;;;;;;;;;;;;;5086271;28;19908;-59
2024/03/31 16:01:05;;;;;;;;;;;;;;;;;;5084028;28;20351;-59
2024/03/31 16:03:31;;;;;;;;;;;;;;;;;;5085465;28;19927;-61
2024/03/31 16:05:56;;;;;;;;;;;;;;;;;;5080426;28;19913;-60
2024/03/31 16:08:21;;;;;;;;;;;;;;;;;;5073212;28;19909;-59
2024/03/31 16:10:46;;;;;;;;;;;;;;;;;;5072994;28;19912;-59
2024/03/31 16:13:11;;;;;;;;;;;;;;;;;;5079554;28;19908;-59
2024/03/31 16:15:37;;;;;;;;;;;;;;;;;;5081711;28;19908;-60
2024/03/31 16:18:02;;;;;;;;;;;;;;;;;;5073160;28;20058;-59
2024/03/31 16:20:27;;;;;;;;;;;;;;;;;;5087607;28;19970;-59
2024/03/31 16:22:52;;;;;;;;;;;;;;;;;;5090446;28;20364;-58
2024/03/31 16:25:17;;;;;;;;;;;;;;;;;;5091974;28;20387;-59
2024/03/31 16:27:44;;;;;;;;;;;;;;;;;;5085913;28;19995;-59
2024/03/31 16:30:09;;;;;;;;;;;;;;;;;;5072646;28;19909;-68